Time;durP1;ratioP1;P1;durP2;ratioP2;P2;SDS_P1;SDS_P2;PMS_P1;PMS_P2;Temp;Humidity;BMP_temperature;BMP_pressure;BME280_temperature;BME280_humidity;BME280_pressure;Samples;Min_cycle;Max_cycle;Signal;HPM_P1;HPM_P2
2023/05/01 00:00:31;;;;;;;4.03;2.83;;;17.70;84.70;;;;;;5074110;28;20789;-72
2023/05/01 00:02:57;;;;;;;3.50;2.90;;;17.70;84.80;;;;;;5056496;28;20477;-72
2023/05/01 00:05:26;;;;;;;4.17;2.50;;;17.70;84.80;;;;;;5074305;28;20440;-72
2023/05/01 00:07:52;;;;;;;3.60;2.60;;;17.70;84.90;;;;;;5074306;28;20439;-72
2023/05/01 00:10:19;;;;;;;5.10;2.87;;;17.60;84.80;;;;;;5056305;28;20426;-72
2023/05/01 00:12:44;;;;;;;6.40;3.03;;;17.70;85.00;;;;;;5056218;28;20459;-72
2023/05/01 00:15:10;;;;;;;6.53;3.20;;;17.70;85.00;;;;;;5073836;28;20428;-72
2023/05/01 00:17:36;;;;;;;5.40;3.07;;;17.60;85.00;;;;;;5039651;28;20831;-72
2023/05/01 00:20:04;;;;;;;11.33;3.30;;;17.60;85.10;;;;;;5056510;28;20532;-72
2023/05/01 00:22:30;;;;;;;11.47;3.60;;;17.60;85.10;;;;;;5073503;28;20465;-72
2023/05/01 00:24:59;;;;;;;12.80;3.83;;;17.60;85.30;;;;;;5079055;28;20468;-72
2023/05/01 00:27:25;;;;;;;14.00;4.07;;;17.50;85.20;;;;;;5039353;28;20432;-71
2023/05/01 00:29:53;;;;;;;16.87;5.40;;;17.50;85.20;;;;;;5073885;28;20478;-71
2023/05/01 00:32:19;;;;;;;11.17;3.53;;;17.50;85.30;;;;;;5038091;28;20452;-72
2023/05/01 00:34:48;;;;;;;8.37;2.80;;;17.50;85.40;;;;;;5056097;28;20766;-72
2023/05/01 00:37:15;;;;;;;6.60;3.33;;;17.50;85.40;;;;;;5037686;28;20447;-71
2023/05/01 00:39:40;;;;;;;6.80;3.10;;;17.40;85.40;;;;;;5055413;28;20428;-71
2023/05/01 00:42:10;;;;;;;8.80;2.97;;;17.40;85.40;;;;;;5055382;28;20447;-72
2023/05/01 00:44:36;;;;;;;8.07;3.07;;;17.40;85.50;;;;;;5038819;28;20475;-72
2023/05/01 00:47:05;;;;;;;7.77;2.80;;;17.40;85.50;;;;;;5055670;28;20463;-72
2023/05/01 00:49:32;;;;;;;5.40;2.93;;;17.40;85.60;;;;;;5055968;28;20419;-72
2023/05/01 00:51:58;;;;;;;6.97;2.90;;;17.40;85.70;;;;;;5088486;28;20486;-72
2023/05/01 00:54:27;;;;;;;4.97;3.07;;;17.40;85.70;;;;;;5022238;28;20460;-70
2023/05/01 00:56:55;;;;;;;6.67;3.43;;;17.40;85.80;;;;;;5071414;28;20456;-72
2023/05/01 00:59:21;;;;;;;5.07;2.37;;;17.30;85.70;;;;;;5055191;28;20506;-72
2023/05/01 01:01:47;;;;;;;11.03;3.20;;;17.30;85.70;;;;;;5039166;28;20435;-72
2023/05/01 01:04:13;;;;;;;4.00;3.03;;;17.30;85.80;;;;;;5072521;28;20419;-72
2023/05/01 01:07:06;;;;;;;3.03;2.50;;;17.30;85.80;;;;;;5055635;28;20395;-72
2023/05/01 01:09:49;;;;;;;5.77;2.50;;;17.20;85.70;;;;;;5035661;28;20191;-71
2023/05/01 01:12:30;;;;;;;3.50;2.63;;;17.20;85.80;;;;;;5021169;28;20978;-72
2023/05/01 01:15:08;;;;;;;4.33;2.60;;;17.20;85.80;;;;;;5035174;28;20445;-72
2023/05/01 01:17:52;;;;;;;8.33;3.00;;;17.20;85.90;;;;;;5037381;28;20514;-71
2023/05/01 01:20:33;;;;;;;3.80;2.70;;;17.20;85.90;;;;;;5035880;28;20467;-72
2023/05/01 01:23:00;;;;;;;4.80;2.80;;;17.10;85.70;;;;;;5034807;28;20484;-72
2023/05/01 01:25:55;;;;;;;4.50;2.73;;;17.10;85.70;;;;;;5026110;28;20430;-72
2023/05/01 01:29:05;;;;;;;5.50;4.13;;;17.10;85.80;;;;;;5031929;28;20497;-72
2023/05/01 01:31:52;;;;;;;2.70;2.50;;;17.10;85.80;;;;;;5018791;28;20463;-71
2023/05/01 01:34:23;;;;;;;3.77;3.03;;;17.10;85.80;;;;;;5054868;28;20452;-71
2023/05/01 01:37:18;;;;;;;4.83;2.93;;;17.00;85.70;;;;;;5038430;28;20427;-72
2023/05/01 01:39:45;;;;;;;3.47;2.83;;;17.00;85.70;;;;;;5037977;28;20959;-72
2023/05/01 01:42:18;;;;;;;4.03;2.47;;;17.00;85.80;;;;;;5054546;28;20476;-72
2023/05/01 01:44:51;;;;;;;3.87;3.37;;;17.00;85.80;;;;;;5002097;28;20494;-72
2023/05/01 01:47:27;;;;;;;7.13;3.20;;;17.00;85.80;;;;;;5052548;28;20511;-72
2023/05/01 01:50:00;;;;;;;24.03;5.53;;;17.00;85.80;;;;;;5037877;28;20510;-71
2023/05/01 01:52:30;;;;;;;24.40;6.40;;;16.90;85.70;;;;;;5070866;28;20489;-72
2023/05/01 01:55:10;;;;;;;23.83;5.20;;;16.90;85.80;;;;;;5054436;28;20408;-71
2023/05/01 01:57:38;;;;;;;23.30;6.03;;;16.90;85.80;;;;;;5087723;28;20990;-72
2023/05/01 02:00:09;;;;;;;12.37;5.07;;;16.90;85.70;;;;;;5071168;28;20830;-72
2023/05/01 02:02:42;;;;;;;21.73;4.77;;;16.80;85.70;;;;;;5054000;28;20979;-72
2023/05/01 02:05:13;;;;;;;11.87;3.37;;;16.80;85.70;;;;;;5037820;28;20399;-72
2023/05/01 02:07:42;;;;;;;16.27;5.23;;;16.80;85.70;;;;;;5071798;28;20407;-71
2023/05/01 02:10:10;;;;;;;15.03;4.03;;;16.80;85.70;;;;;;5070917;28;20426;-72
2023/05/01 02:12:40;;;;;;;9.27;3.47;;;16.80;85.70;;;;;;5021340;28;21066;-72
2023/05/01 02:15:08;;;;;;;12.70;4.00;;;16.80;85.80;;;;;;5054251;28;20459;-72
2023/05/01 02:17:41;;;;;;;11.00;3.40;;;16.80;85.90;;;;;;5087542;28;20400;-72
2023/05/01 02:20:09;;;;;;;11.73;3.90;;;16.70;85.80;;;;;;5061471;28;20474;-72
2023/05/01 02:22:37;;;;;;;5.70;3.50;;;16.70;85.90;;;;;;5034923;28;20933;-72
2023/05/01 02:25:04;;;;;;;8.20;3.23;;;16.70;86.00;;;;;;5070616;28;20502;-72
2023/05/01 02:27:34;;;;;;;11.00;3.10;;;16.70;86.00;;;;;;5054348;28;20419;-72
2023/05/01 02:30:04;;;;;;;5.07;2.97;;;16.70;86.10;;;;;;5086938;28;20438;-72
2023/05/01 02:32:30;;;;;;;6.93;2.60;;;16.70;86.20;;;;;;5053554;28;20501;-71
2023/05/01 02:34:57;;;;;;;7.33;3.00;;;16.60;86.20;;;;;;5037553;28;20418;-72
2023/05/01 02:37:23;;;;;;;7.97;2.90;;;16.60;86.30;;;;;;5090947;23;20505;-72
2023/05/01 02:39:52;;;;;;;4.23;2.73;;;16.60;86.40;;;;;;5009698;28;20430;-72
2023/05/01 02:42:24;;;;;;;5.40;3.10;;;16.60;86.50;;;;;;5013502;28;20453;-73
2023/05/01 02:44:56;;;;;;;4.97;2.70;;;16.60;86.50;;;;;;5030525;28;20507;-72
2023/05/01 02:47:23;;;;;;;5.77;2.60;;;16.60;86.50;;;;;;5013539;28;20492;-72
2023/05/01 02:49:53;;;;;;;7.50;3.13;;;16.60;86.70;;;;;;4997525;28;20774;-72
2023/05/01 02:52:19;;;;;;;9.53;3.43;;;16.50;86.60;;;;;;5013173;28;20451;-72
2023/05/01 02:54:51;;;;;;;9.03;3.77;;;16.50;86.80;;;;;;5030079;28;20425;-72
2023/05/01 02:57:19;;;;;;;10.13;3.37;;;16.50;86.90;;;;;;5017739;28;20463;-72
2023/05/01 02:59:47;;;;;;;10.63;3.60;;;16.50;86.90;;;;;;5033925;28;20406;-72
2023/05/01 03:02:16;;;;;;;10.37;3.60;;;16.50;87.00;;;;;;5033501;28;20468;-72
2023/05/01 03:04:42;;;;;;;8.03;3.13;;;16.50;87.10;;;;;;5017909;28;20408;-72
2023/05/01 03:07:11;;;;;;;10.20;3.37;;;16.40;87.10;;;;;;5016786;28;20428;-72
2023/05/01 03:09:41;;;;;;;4.80;3.00;;;16.40;87.20;;;;;;5033915;28;20534;-72
2023/05/01 03:12:10;;;;;;;9.03;2.90;;;16.40;87.20;;;;;;5017028;28;20453;-72
2023/05/01 03:14:38;;;;;;;6.83;3.10;;;16.40;87.30;;;;;;5017031;28;20480;-72
2023/05/01 03:17:07;;;;;;;9.30;2.90;;;16.40;87.30;;;;;;5017437;28;20530;-72
2023/05/01 03:19:33;;;;;;;8.47;2.80;;;16.40;87.40;;;;;;5012844;28;20425;-72
2023/05/01 03:21:59;;;;;;;9.83;3.37;;;16.40;87.50;;;;;;5033737;28;20276;-72
2023/05/01 03:24:25;;;;;;;3.03;2.73;;;16.40;87.50;;;;;;5033418;28;20530;-72
2023/05/01 03:26:51;;;;;;;3.60;3.00;;;16.30;87.50;;;;;;5033731;28;20416;-72
2023/05/01 03:29:20;;;;;;;9.40;3.23;;;16.30;87.60;;;;;;5016960;28;20421;-72
2023/05/01 03:31:49;;;;;;;6.77;2.90;;;16.30;87.60;;;;;;5029412;28;20503;-72
2023/05/01 03:34:15;;;;;;;9.20;3.73;;;16.30;87.70;;;;;;5033300;28;20465;-72
2023/05/01 03:36:43;;;;;;;4.40;2.80;;;16.30;87.80;;;;;;5017119;28;20479;-72
2023/05/01 03:39:09;;;;;;;7.50;2.47;;;16.30;87.80;;;;;;5016838;28;20433;-72
2023/05/01 03:41:54;;;;;;;11.03;2.90;;;16.20;87.90;;;;;;5016860;28;20450;-72
2023/05/01 03:44:26;;;;;;;6.80;3.00;;;16.20;88.00;;;;;;5033455;28;20404;-72
2023/05/01 03:46:54;;;;;;;6.87;2.80;;;16.20;88.00;;;;;;4999165;28;20491;-72
2023/05/01 03:49:24;;;;;;;7.60;3.27;;;16.20;88.00;;;;;;5033149;28;20473;-72
2023/05/01 03:51:52;;;;;;;5.87;3.10;;;16.20;88.10;;;;;;5016399;28;20977;-72
2023/05/01 03:54:18;;;;;;;11.93;3.00;;;16.20;88.10;;;;;;5016470;28;20458;-72
2023/05/01 03:56:59;;;;;;;8.00;3.30;;;16.20;88.20;;;;;;5016386;28;20445;-72
2023/05/01 03:59:29;;;;;;;8.00;3.33;;;16.20;88.30;;;;;;4997186;28;20478;-72
2023/05/01 04:01:57;;;;;;;9.20;3.57;;;16.20;88.40;;;;;;5023597;28;20444;-72
2023/05/01 04:04:25;;;;;;;6.30;4.90;;;16.10;88.30;;;;;;5016680;28;20409;-72
2023/05/01 04:06:55;;;;;;;9.50;2.83;;;16.10;88.40;;;;;;5016714;28;20807;-72
2023/05/01 04:09:24;;;;;;;9.70;2.93;;;16.10;88.50;;;;;;5016422;28;20424;-72
2023/05/01 04:11:50;;;;;;;10.13;3.40;;;16.10;88.60;;;;;;5015952;28;20452;-72
2023/05/01 04:14:18;;;;;;;9.13;3.47;;;16.10;88.70;;;;;;4999863;28;20828;-72
2023/05/01 04:16:47;;;;;;;6.27;3.80;;;16.10;88.60;;;;;;5032347;28;20416;-72
2023/05/01 04:19:17;;;;;;;7.83;3.60;;;16.10;88.70;;;;;;5033217;28;20890;-72
2023/05/01 04:21:48;;;;;;;6.60;2.70;;;16.10;88.80;;;;;;5032353;28;20506;-72
2023/05/01 04:24:15;;;;;;;5.97;2.93;;;16.00;88.70;;;;;;5032774;28;20443;-72
2023/05/01 04:26:42;;;;;;;7.40;3.40;;;16.00;88.70;;;;;;5015623;28;20429;-72
2023/05/01 04:29:10;;;;;;;7.60;2.87;;;16.00;88.80;;;;;;5027796;28;20439;-72
2023/05/01 04:31:42;;;;;;;7.83;3.40;;;16.00;88.80;;;;;;5048725;28;20460;-72
2023/05/01 04:34:11;;;;;;;5.57;3.00;;;16.00;88.80;;;;;;5016132;28;20455;-72
2023/05/01 04:36:42;;;;;;;5.80;2.80;;;16.00;88.90;;;;;;4999870;28;20473;-72
2023/05/01 04:39:10;;;;;;;7.30;2.80;;;16.00;88.90;;;;;;5009273;28;20426;-72
2023/05/01 04:41:39;;;;;;;8.13;2.70;;;15.90;88.80;;;;;;5031281;28;20461;-72
2023/05/01 04:44:05;;;;;;;7.57;3.50;;;15.90;88.90;;;;;;5016003;28;20430;-72
2023/05/01 04:46:34;;;;;;;6.63;3.03;;;15.90;89.00;;;;;;5019097;28;20922;-72
2023/05/01 04:49:00;;;;;;;5.67;3.10;;;15.90;89.00;;;;;;5035372;28;20455;-72
2023/05/01 04:51:27;;;;;;;7.73;3.80;;;15.90;89.10;;;;;;5015289;28;20424;-72
2023/05/01 04:53:54;;;;;;;4.97;3.00;;;15.90;89.10;;;;;;5015670;28;20524;-72
2023/05/01 04:56:26;;;;;;;5.37;3.07;;;15.90;89.10;;;;;;5019243;28;20425;-72
2023/05/01 04:58:58;;;;;;;6.17;2.67;;;15.90;89.20;;;;;;5019928;28;20830;-72
2023/05/01 05:01:29;;;;;;;6.10;3.00;;;15.80;89.20;;;;;;5015180;28;20448;-72
2023/05/01 05:03:55;;;;;;;5.13;2.73;;;15.80;89.20;;;;;;4999460;28;20434;-72
2023/05/01 05:06:21;;;;;;;5.90;2.40;;;15.80;89.20;;;;;;5040846;28;20484;-72
2023/05/01 05:08:50;;;;;;;7.13;3.20;;;15.80;89.30;;;;;;5019139;28;20757;-72
2023/05/01 05:11:17;;;;;;;5.43;3.37;;;15.80;89.40;;;;;;5001922;28;20412;-72
2023/05/01 05:13:55;;;;;;;5.53;2.63;;;15.80;89.50;;;;;;5035166;28;20504;-72
2023/05/01 05:16:21;;;;;;;2.90;2.47;;;15.80;89.50;;;;;;5031400;28;20514;-72
2023/05/01 05:18:55;;;;;;;5.17;2.50;;;15.70;89.60;;;;;;4999849;28;20474;-71
2023/05/01 05:21:21;;;;;;;4.90;2.90;;;15.80;89.70;;;;;;5034418;28;20494;-72
2023/05/01 05:23:56;;;;;;;4.40;2.30;;;15.70;89.70;;;;;;5018977;28;20958;-73
2023/05/01 05:26:22;;;;;;;6.03;2.27;;;15.70;89.90;;;;;;5026639;28;21095;-72
2023/05/01 05:28:52;;;;;;;6.83;3.40;;;15.70;90.00;;;;;;5018454;28;20403;-72
2023/05/01 05:31:23;;;;;;;4.67;3.00;;;15.70;90.00;;;;;;5034993;28;20542;-72
2023/05/01 05:33:51;;;;;;;10.07;3.60;;;15.70;90.10;;;;;;5052393;28;20537;-72
2023/05/01 05:36:19;;;;;;;6.33;3.03;;;15.70;90.20;;;;;;4999806;28;20458;-72
2023/05/01 05:38:45;;;;;;;12.17;4.00;;;15.70;90.20;;;;;;5034154;28;20767;-72
2023/05/01 05:41:18;;;;;;;7.83;3.13;;;15.70;90.30;;;;;;5034123;28;20513;-72
2023/05/01 05:43:45;;;;;;;8.60;3.20;;;15.70;90.30;;;;;;5002049;28;20497;-72
2023/05/01 05:46:11;;;;;;;8.97;3.50;;;15.70;90.40;;;;;;5017751;28;20442;-72
2023/05/01 05:48:40;;;;;;;4.47;2.70;;;15.70;90.50;;;;;;5034422;28;20402;-72
2023/05/01 05:51:09;;;;;;;7.47;3.10;;;15.70;90.50;;;;;;5034037;28;20450;-72
2023/05/01 05:53:37;;;;;;;5.53;3.23;;;15.70;90.60;;;;;;5030736;28;20452;-72
2023/05/01 05:56:03;;;;;;;4.10;2.50;;;15.70;90.70;;;;;;5014120;28;20904;-72
2023/05/01 05:58:30;;;;;;;3.70;3.40;;;15.70;90.70;;;;;;5015352;28;20436;-72
2023/05/01 06:00:58;;;;;;;4.20;2.67;;;15.70;90.80;;;;;;5034313;28;20428;-72
2023/05/01 06:03:25;;;;;;;5.33;2.90;;;15.70;90.80;;;;;;5017699;28;20212;-72
2023/05/01 06:05:54;;;;;;;11.03;3.30;;;15.70;90.80;;;;;;5033896;28;20430;-74
2023/05/01 06:08:20;;;;;;;5.50;2.97;;;15.70;90.80;;;;;;5017975;28;20421;-73
2023/05/01 06:10:47;;;;;;;5.03;2.50;;;15.70;90.90;;;;;;5030495;28;20907;-74
2023/05/01 06:13:13;;;;;;;9.23;3.43;;;15.70;90.90;;;;;;5013949;28;20510;-74
2023/05/01 06:15:42;;;;;;;6.43;2.60;;;15.70;90.90;;;;;;5017457;28;20214;-73
2023/05/01 06:18:08;;;;;;;4.63;3.03;;;15.70;90.80;;;;;;5017810;28;20428;-73
2023/05/01 06:20:34;;;;;;;7.70;3.10;;;15.70;90.80;;;;;;5017636;28;20517;-73
2023/05/01 06:23:00;;;;;;;5.03;2.77;;;15.70;90.80;;;;;;5033383;28;20449;-73
2023/05/01 06:25:36;;;;;;;3.53;3.07;;;15.70;90.80;;;;;;5034011;28;20970;-73
2023/05/01 06:28:02;;;;;;;4.77;2.60;;;15.70;90.70;;;;;;5017561;28;20422;-73
2023/05/01 06:30:30;;;;;;;3.43;2.43;;;15.70;90.60;;;;;;5013765;28;20449;-73
2023/05/01 06:33:01;;;;;;;2.67;2.43;;;15.70;90.60;;;;;;5014815;28;20937;-73
2023/05/01 06:35:27;;;;;;;4.43;3.20;;;15.70;90.60;;;;;;5015220;28;20500;-73
2023/05/01 06:37:55;;;;;;;3.17;2.33;;;15.70;90.50;;;;;;5015103;28;20453;-73
2023/05/01 06:40:21;;;;;;;3.40;2.50;;;15.70;90.40;;;;;;5031546;28;20918;-73
2023/05/01 06:42:49;;;;;;;3.20;2.50;;;15.70;90.40;;;;;;5031654;28;20442;-74
2023/05/01 06:45:15;;;;;;;6.40;3.53;;;15.70;90.30;;;;;;5031093;28;20419;-73
2023/05/01 06:47:42;;;;;;;3.57;2.70;;;15.70;90.30;;;;;;5048286;28;20487;-73
2023/05/01 06:50:11;;;;;;;4.80;3.00;;;15.70;90.20;;;;;;5048977;28;20447;-73
2023/05/01 06:52:37;;;;;;;3.70;2.83;;;15.70;90.20;;;;;;5047677;28;20453;-73
2023/05/01 06:55:05;;;;;;;2.60;2.40;;;15.70;90.20;;;;;;5014654;28;20492;-73
2023/05/01 06:57:36;;;;;;;5.40;2.70;;;15.70;90.10;;;;;;5049213;28;20403;-73
2023/05/01 07:00:02;;;;;;;3.37;2.70;;;15.70;90.10;;;;;;5014914;28;20468;-73
2023/05/01 07:02:31;;;;;;;5.50;2.70;;;15.70;90.10;;;;;;5047691;28;20468;-73
2023/05/01 07:05:02;;;;;;;3.50;2.37;;;15.70;90.10;;;;;;5031350;28;20790;-73
2023/05/01 07:07:29;;;;;;;4.20;2.90;;;15.80;90.10;;;;;;5049177;28;20441;-73
2023/05/01 07:09:55;;;;;;;3.20;2.90;;;15.80;90.20;;;;;;5031105;28;20438;-76
2023/05/01 07:12:26;;;;;;;2.70;2.50;;;15.80;90.20;;;;;;5031214;28;20960;-72
2023/05/01 07:14:52;;;;;;;3.73;2.93;;;15.80;90.20;;;;;;5015193;28;20184;-74
2023/05/01 07:17:18;;;;;;;3.40;2.53;;;15.80;90.20;;;;;;5014131;28;20904;-73
2023/05/01 07:19:44;;;;;;;3.17;2.60;;;15.80;90.10;;;;;;5016166;28;20456;-74
2023/05/01 07:22:10;;;;;;;4.30;2.90;;;15.80;90.20;;;;;;5048702;28;20819;-74
2023/05/01 07:24:35;;;;;;;2.83;2.63;;;15.80;90.20;;;;;;5049233;28;20718;-74
2023/05/01 07:27:01;;;;;;;3.83;2.77;;;15.80;90.20;;;;;;5046665;28;20429;-73
2023/05/01 07:29:28;;;;;;;3.77;2.30;;;15.80;90.20;;;;;;5012259;28;20224;-73
2023/05/01 07:31:54;;;;;;;3.50;2.50;;;15.80;90.20;;;;;;5030944;28;20530;-73
2023/05/01 07:34:24;;;;;;;3.00;2.67;;;15.90;90.20;;;;;;5014812;28;20473;-73
2023/05/01 07:36:51;;;;;;;5.57;2.80;;;15.90;90.30;;;;;;5031182;28;20475;-74
2023/05/01 07:39:17;;;;;;;3.20;2.73;;;15.90;90.30;;;;;;5031971;28;20408;-73
2023/05/01 07:41:43;;;;;;;4.67;2.83;;;15.90;90.30;;;;;;5015907;28;20970;-74
2023/05/01 07:44:12;;;;;;;3.43;2.93;;;15.90;90.30;;;;;;5021625;28;20483;-74
2023/05/01 07:46:41;;;;;;;3.20;2.77;;;15.90;90.30;;;;;;5050124;28;20440;-76
2023/05/01 07:49:07;;;;;;;3.53;2.67;;;15.90;90.20;;;;;;5033706;28;20923;-74
2023/05/01 07:51:33;;;;;;;3.87;2.70;;;15.90;90.20;;;;;;5033540;28;20597;-74
2023/05/01 07:54:03;;;;;;;5.70;2.80;;;15.90;90.20;;;;;;5033873;28;20454;-74
2023/05/01 07:56:30;;;;;;;4.77;3.10;;;15.90;90.20;;;;;;5050512;28;20844;-74
2023/05/01 07:58:56;;;;;;;3.23;2.93;;;15.90;90.20;;;;;;5017686;28;20446;-74
2023/05/01 08:01:22;;;;;;;3.37;2.23;;;15.90;90.20;;;;;;5001385;28;20436;-74
2023/05/01 08:03:48;;;;;;;3.03;2.70;;;15.90;90.20;;;;;;5033553;28;20431;-74
2023/05/01 08:06:14;;;;;;;3.70;2.77;;;15.90;90.20;;;;;;5033810;28;20946;-74
2023/05/01 08:08:40;;;;;;;3.97;2.63;;;15.90;90.20;;;;;;5033729;28;20461;-74
2023/05/01 08:11:08;;;;;;;3.20;2.93;;;16.00;90.20;;;;;;5016942;28;20816;-74
2023/05/01 08:13:34;;;;;;;3.80;3.10;;;16.00;90.10;;;;;;5050089;28;20559;-74
2023/05/01 08:16:03;;;;;;;3.10;2.60;;;16.00;90.10;;;;;;5034013;28;20420;-73
2023/05/01 08:18:30;;;;;;;4.37;3.10;;;16.00;90.10;;;;;;5051578;28;20429;-74
2023/05/01 08:20:56;;;;;;;3.50;3.20;;;16.00;90.10;;;;;;5033682;28;20433;-74
2023/05/01 08:23:24;;;;;;;3.13;2.83;;;16.00;90.00;;;;;;5033787;28;20469;-74
2023/05/01 08:25:51;;;;;;;4.40;3.00;;;16.00;90.00;;;;;;5034251;28;20442;-74
2023/05/01 08:28:19;;;;;;;3.47;2.73;;;16.00;90.00;;;;;;5036042;28;20440;-74
2023/05/01 08:30:47;;;;;;;3.50;3.00;;;16.00;90.00;;;;;;5050465;28;20438;-74
2023/05/01 08:33:13;;;;;;;3.87;2.83;;;16.10;90.10;;;;;;5049771;28;21007;-74
2023/05/01 08:35:41;;;;;;;3.27;2.50;;;16.10;90.10;;;;;;5017083;28;20431;-74
2023/05/01 08:38:07;;;;;;;3.03;2.77;;;16.10;90.10;;;;;;5033326;28;20537;-74
2023/05/01 08:40:37;;;;;;;4.33;3.60;;;16.10;90.10;;;;;;5033145;28;20420;-74
2023/05/01 08:43:06;;;;;;;4.33;3.20;;;16.10;90.10;;;;;;5033145;28;20466;-74
2023/05/01 08:45:36;;;;;;;3.60;3.13;;;16.10;90.10;;;;;;5033316;28;20472;-74
2023/05/01 08:48:05;;;;;;;2.93;2.73;;;16.10;90.10;;;;;;5033413;28;20453;-74
2023/05/01 08:50:34;;;;;;;3.30;2.43;;;16.20;90.10;;;;;;5033265;28;20419;-74
2023/05/01 08:53:04;;;;;;;3.73;2.93;;;16.20;90.10;;;;;;5049456;28;20468;-74
2023/05/01 08:55:32;;;;;;;5.93;2.80;;;16.20;90.10;;;;;;5033437;28;20420;-75
2023/05/01 08:58:02;;;;;;;4.80;2.70;;;16.20;90.10;;;;;;5033144;28;20503;-72
2023/05/01 09:00:33;;;;;;;3.00;2.80;;;16.20;90.10;;;;;;5033532;28;20406;-72
2023/05/01 09:03:01;;;;;;;3.23;2.70;;;16.20;90.10;;;;;;5033228;28;21028;-72
2023/05/01 09:05:30;;;;;;;3.13;2.70;;;16.30;90.10;;;;;;5016449;28;20427;-73
2023/05/01 09:07:58;;;;;;;2.97;2.67;;;16.30;90.10;;;;;;5027371;28;20486;-73
2023/05/01 09:10:24;;;;;;;3.43;2.80;;;16.30;90.10;;;;;;5049897;28;20409;-72
2023/05/01 09:12:59;;;;;;;4.20;3.20;;;16.30;90.00;;;;;;5049432;28;20521;-72
2023/05/01 09:15:26;;;;;;;5.23;3.53;;;16.40;90.10;;;;;;5032810;28;20437;-72
2023/05/01 09:17:53;;;;;;;7.63;3.00;;;16.40;90.10;;;;;;5033140;28;20446;-73
2023/05/01 09:20:22;;;;;;;4.83;2.97;;;16.40;90.00;;;;;;5050734;28;20442;-73
2023/05/01 09:22:52;;;;;;;3.10;2.50;;;16.50;89.80;;;;;;5049253;28;20555;-70
2023/05/01 09:25:18;;;;;;;3.10;2.73;;;16.50;89.90;;;;;;5032657;28;20862;-72
2023/05/01 09:27:45;;;;;;;3.00;2.70;;;16.50;89.80;;;;;;5016168;28;20455;-74
2023/05/01 09:30:36;;;;;;;5.37;2.60;;;16.50;89.70;;;;;;5014106;28;20519;-72
2023/05/01 09:33:10;;;;;;;3.70;3.00;;;16.60;89.90;;;;;;5013291;28;20568;-71
2023/05/01 09:35:56;;;;;;;3.90;2.40;;;16.60;89.80;;;;;;5039333;28;20830;-72
2023/05/01 09:38:26;;;;;;;3.07;2.63;;;16.60;89.80;;;;;;5023309;28;20783;-74
2023/05/01 09:41:03;;;;;;;2.60;2.40;;;16.60;89.80;;;;;;5022985;28;20507;-74
2023/05/01 09:43:30;;;;;;;2.83;2.20;;;16.70;90.00;;;;;;4994313;28;20528;-72
2023/05/01 09:46:10;;;;;;;2.50;2.30;;;16.70;89.90;;;;;;5009841;28;20436;-72
2023/05/01 09:48:41;;;;;;;2.80;2.47;;;16.70;89.60;;;;;;5024605;28;20451;-73
2023/05/01 09:51:28;;;;;;;3.33;3.03;;;16.80;89.50;;;;;;5042564;28;20429;-75
2023/05/01 09:54:03;;;;;;;3.37;2.70;;;16.80;89.40;;;;;;5030270;28;20483;-74
2023/05/01 09:56:31;;;;;;;4.90;3.00;;;16.80;89.30;;;;;;5041990;28;20464;-76
2023/05/01 09:59:15;;;;;;;3.47;2.23;;;16.80;89.20;;;;;;5007388;28;20441;-72
2023/05/01 10:01:45;;;;;;;3.50;2.73;;;16.90;89.50;;;;;;5041888;28;20541;-73
2023/05/01 10:04:14;;;;;;;3.70;2.80;;;16.90;89.40;;;;;;5010690;28;20420;-75
2023/05/01 10:06:40;;;;;;;3.30;2.90;;;16.90;89.20;;;;;;5027763;28;21122;-75
2023/05/01 10:09:15;;;;;;;3.03;2.73;;;17.00;89.30;;;;;;5044214;28;20409;-75
2023/05/01 10:11:51;;;;;;;3.20;2.40;;;17.00;89.30;;;;;;5017204;28;20448;-75
2023/05/01 10:14:22;;;;;;;2.97;2.40;;;17.00;89.30;;;;;;5034900;28;20447;-76
2023/05/01 10:16:54;;;;;;;5.53;3.00;;;17.10;89.40;;;;;;5052475;28;20412;-76
2023/05/01 10:19:21;;;;;;;3.20;2.70;;;17.10;89.40;;;;;;5034406;28;20437;-77
2023/05/01 10:21:47;;;;;;;3.30;2.80;;;17.10;89.60;;;;;;5033434;28;20440;-75
2023/05/01 10:24:15;;;;;;;3.03;2.60;;;17.20;89.80;;;;;;5032450;28;20441;-75
2023/05/01 10:26:45;;;;;;;3.00;2.40;;;17.20;89.80;;;;;;5001655;28;20530;-75
2023/05/01 10:29:11;;;;;;;2.83;2.40;;;17.20;89.80;;;;;;5033984;28;20424;-75
2023/05/01 10:31:37;;;;;;;3.03;2.73;;;17.30;90.00;;;;;;5017330;28;20453;-74
2023/05/01 10:34:04;;;;;;;4.07;2.60;;;17.30;89.90;;;;;;5017098;28;21007;-74
2023/05/01 10:36:33;;;;;;;3.33;2.40;;;17.30;90.00;;;;;;5059552;28;20743;-75
2023/05/01 10:38:59;;;;;;;2.70;2.50;;;17.40;90.00;;;;;;5033499;28;20413;-76
2023/05/01 10:42:00;;;;;;;2.93;2.70;;;17.40;90.00;;;;;;5024182;28;20414;-78
2023/05/01 10:44:26;;;;;;;3.10;2.80;;;17.40;90.00;;;;;;5025645;28;20498;-75
2023/05/01 10:46:53;;;;;;;2.97;2.50;;;17.50;90.10;;;;;;5102336;23;1125132;-79
2023/05/01 10:49:20;;;;;;;3.00;2.80;;;17.50;90.00;;;;;;5062037;28;20279;-80
2023/05/01 10:52:00;;;;;;;3.40;3.10;;;17.50;90.00;;;;;;5044495;28;20494;-79
2023/05/01 10:54:29;;;;;;;3.60;2.53;;;17.50;90.00;;;;;;5039903;28;20476;-80
2023/05/01 10:57:00;;;;;;;3.00;2.67;;;17.60;90.10;;;;;;5058062;28;20484;-80
2023/05/01 10:59:46;;;;;;;3.10;2.40;;;17.60;90.10;;;;;;5043014;28;20401;-82
2023/05/01 11:02:26;;;;;;;2.60;2.40;;;17.60;90.10;;;;;;5052592;28;20440;-78
2023/05/01 11:04:53;;;;;;;3.13;2.60;;;17.70;90.00;;;;;;5053471;28;20385;-76
2023/05/01 11:07:22;;;;;;;3.73;2.80;;;17.70;90.00;;;;;;5036058;28;20424;-78
2023/05/01 11:09:58;;;;;;;3.67;2.67;;;17.70;90.00;;;;;;5057340;28;20432;-78
2023/05/01 11:12:50;;;;;;;3.27;2.70;;;17.80;90.00;;;;;;5039928;28;20442;-78
2023/05/01 11:15:27;;;;;;;5.60;2.53;;;17.80;90.00;;;;;;5039015;28;20453;-78
2023/05/01 11:17:53;;;;;;;3.13;2.27;;;17.80;90.00;;;;;;5017669;28;20420;-77
2023/05/01 11:20:25;;;;;;;3.10;2.80;;;17.90;90.00;;;;;;5042995;28;20866;-78
2023/05/01 11:22:56;;;;;;;3.53;2.27;;;17.90;90.00;;;;;;5029702;28;20453;-76
2023/05/01 11:25:29;;;;;;;3.50;2.70;;;17.90;89.90;;;;;;5039471;28;20857;-77
2023/05/01 11:27:57;;;;;;;2.90;2.27;;;18.00;89.80;;;;;;5042212;28;20832;-77
2023/05/01 11:30:24;;;;;;;2.47;2.23;;;18.00;89.70;;;;;;5022952;28;20524;-77
2023/05/01 11:32:52;;;;;;;2.40;2.20;;;18.00;89.70;;;;;;5068396;28;20472;-77
2023/05/01 11:35:21;;;;;;;2.50;2.30;;;18.10;89.90;;;;;;5007443;28;20448;-77
2023/05/01 11:37:50;;;;;;;2.77;2.20;;;18.10;89.80;;;;;;5054473;28;20455;-77
2023/05/01 11:40:28;;;;;;;2.90;2.40;;;18.10;89.60;;;;;;5059323;28;20416;-77
2023/05/01 11:43:05;;;;;;;2.40;2.20;;;18.20;89.70;;;;;;5043744;28;20554;-77
2023/05/01 11:45:33;;;;;;;2.73;2.53;;;18.20;89.70;;;;;;5039015;28;21007;-77
2023/05/01 11:48:01;;;;;;;3.20;2.80;;;18.30;89.80;;;;;;5038885;28;20421;-77
2023/05/01 11:50:32;;;;;;;2.10;2.00;;;18.30;89.80;;;;;;5033846;28;20974;-78
2023/05/01 11:53:01;;;;;;;2.20;2.00;;;18.30;89.90;;;;;;5038765;28;20469;-77
2023/05/01 11:55:34;;;;;;;2.80;2.50;;;18.30;89.80;;;;;;5047362;28;20435;-77
2023/05/01 11:58:00;;;;;;;2.27;2.07;;;18.40;89.80;;;;;;5038913;28;20437;-77
2023/05/01 12:00:32;;;;;;;2.70;2.50;;;18.40;89.80;;;;;;5022227;28;20486;-77
2023/05/01 12:03:03;;;;;;;3.73;2.43;;;18.50;89.90;;;;;;5068659;28;20448;-77
2023/05/01 12:05:30;;;;;;;2.17;1.97;;;18.50;89.80;;;;;;5038661;28;20446;-77
2023/05/01 12:08:08;;;;;;;2.40;2.20;;;18.50;89.70;;;;;;5052176;28;20459;-76
2023/05/01 12:10:40;;;;;;;2.67;2.47;;;18.50;89.60;;;;;;5048696;28;20438;-77
2023/05/01 12:13:07;;;;;;;2.63;2.43;;;18.60;89.70;;;;;;5032227;28;20579;-77
2023/05/01 12:15:36;;;;;;;2.40;2.20;;;18.60;89.60;;;;;;5050276;28;20418;-77
2023/05/01 12:18:05;;;;;;;4.60;2.13;;;18.60;89.50;;;;;;5005835;28;20781;-77
2023/05/01 12:20:36;;;;;;;2.40;2.20;;;18.70;89.60;;;;;;5026344;28;20450;-77
2023/05/01 12:23:04;;;;;;;2.83;2.00;;;18.70;89.20;;;;;;5020424;28;20468;-77
2023/05/01 12:25:34;;;;;;;2.17;2.00;;;18.80;89.20;;;;;;5046169;28;20485;-77
2023/05/01 12:28:18;;;;;;;3.10;2.40;;;18.70;89.10;;;;;;5058598;28;20416;-77
2023/05/01 12:30:51;;;;;;;4.37;2.70;;;18.80;89.10;;;;;;5038428;28;20792;-77
2023/05/01 12:33:21;;;;;;;3.47;2.00;;;18.80;88.80;;;;;;5037249;28;20837;-78
2023/05/01 12:35:51;;;;;;;2.33;2.13;;;18.90;88.80;;;;;;5023987;28;20823;-78
2023/05/01 12:38:21;;;;;;;2.47;2.27;;;18.90;88.70;;;;;;5030877;28;20452;-78
2023/05/01 12:41:00;;;;;;;2.40;2.20;;;18.90;88.60;;;;;;5061720;28;20862;-78
2023/05/01 12:43:29;;;;;;;4.87;3.23;;;19.00;88.70;;;;;;5060629;28;20455;-79
2023/05/01 12:45:56;;;;;;;4.20;2.40;;;19.00;88.00;;;;;;5060491;28;20485;-78
2023/05/01 12:48:25;;;;;;;2.30;2.10;;;19.10;87.60;;;;;;5045196;28;20513;-79
2023/05/01 12:50:55;;;;;;;2.43;2.23;;;19.10;87.70;;;;;;5060585;28;20405;-78
2023/05/01 12:53:24;;;;;;;3.07;2.60;;;19.10;87.70;;;;;;5063075;28;20508;-78
2023/05/01 12:56:00;;;;;;;2.63;2.43;;;19.10;87.30;;;;;;5029206;28;20817;-78
2023/05/01 12:58:36;;;;;;;2.63;2.43;;;19.10;87.10;;;;;;5062748;28;20421;-78